Time;durP1;ratioP1;P1;durP2;ratioP2;P2;SDS_P1;SDS_P2;PMS_P1;PMS_P2;Temp;Humidity;BMP_temperature;BMP_pressure;BME280_temperature;BME280_humidity;BME280_pressure;Samples;Min_cycle;Max_cycle;Signal;HPM_P1;HPM_P2
2023/07/27 00:01:55;;;;;;;;;2.00;2.00;;;;;24.18;41.19;100343.41;110023;1267;19992;-36
2023/07/27 00:04:22;;;;;;;;;3.00;2.00;;;;;24.19;40.99;100347.23;109982;1267;19393;-35
2023/07/27 00:06:50;;;;;;;;;3.00;3.00;;;;;24.19;41.23;100348.77;109855;1254;23274;-35
2023/07/27 00:09:17;;;;;;;;;3.00;2.00;;;;;24.17;41.08;100353.19;110038;1254;20135;-35
2023/07/27 00:11:44;;;;;;;;;2.00;2.00;;;;;24.19;40.99;100353.09;109997;1254;22861;-35
2023/07/27 00:14:12;;;;;;;;;1.33;1.33;;;;;24.19;40.93;100353.20;109718;1267;18371;-35
2023/07/27 00:16:39;;;;;;;;;2.67;2.00;;;;;24.19;40.96;100352.37;109546;1268;20961;-35
2023/07/27 00:19:06;;;;;;;;;2.00;2.00;;;;;24.19;40.95;100352.70;109482;1268;140225;-35
2023/07/27 00:21:34;;;;;;;;;2.00;2.00;;;;;24.18;40.90;100352.01;109637;1253;19689;-35
2023/07/27 00:24:01;;;;;;;;;2.00;2.00;;;;;24.21;40.54;100353.16;109628;1254;20220;-35
2023/07/27 00:26:29;;;;;;;;;2.00;2.00;;;;;24.22;40.69;100358.34;109592;1260;19400;-36
2023/07/27 00:28:56;;;;;;;;;2.50;2.50;;;;;24.20;40.57;100356.24;109634;1262;19677;-35
2023/07/27 00:31:23;;;;;;;;;2.00;2.00;;;;;24.18;40.67;100359.67;109587;1254;20087;-35
2023/07/27 00:33:51;;;;;;;;;2.00;2.00;;;;;24.20;40.48;100354.92;109578;1269;19322;-35
2023/07/27 00:36:18;;;;;;;;;2.00;2.00;;;;;24.20;40.45;100352.48;109593;1263;19542;-34
2023/07/27 00:38:45;;;;;;;;;2.00;2.00;;;;;24.20;40.20;100348.65;109618;1254;22247;-35
2023/07/27 00:41:13;;;;;;;;;3.00;3.00;;;;;24.20;40.53;100354.54;109611;1268;19350;-35
2023/07/27 00:43:40;;;;;;;;;2.00;2.00;;;;;24.20;40.28;100354.00;109582;1260;19900;-35
2023/07/27 00:46:07;;;;;;;;;3.00;3.00;;;;;24.18;40.27;100354.80;109621;1254;20049;-34
2023/07/27 00:48:34;;;;;;;;;;;;;;;24.18;40.28;100358.85;109607;1268;21951;-35
2023/07/27 00:51:02;;;;;;;;;3.00;3.00;;;;;24.18;40.16;100357.10;109590;1262;19561;-35
2023/07/27 00:53:29;;;;;;;;;2.00;2.00;;;;;24.19;40.36;100357.85;109900;1267;18703;-34
2023/07/27 00:55:56;;;;;;;;;3.00;3.00;;;;;24.20;40.27;100359.80;109888;1254;20832;-34
2023/07/27 00:58:24;;;;;;;;;2.00;2.00;;;;;24.21;40.02;100361.60;109991;1253;19657;-35
2023/07/27 01:00:51;;;;;;;;;3.00;3.00;;;;;24.20;40.19;100361.11;109959;1254;20088;-34
2023/07/27 01:03:18;;;;;;;;;3.00;3.00;;;;;24.19;40.25;100366.60;109996;1262;20944;-35
2023/07/27 01:05:46;;;;;;;;;3.00;3.00;;;;;24.18;40.06;100359.29;110012;1263;19557;-35
2023/07/27 01:08:13;;;;;;;;;3.00;3.00;;;;;24.18;40.11;100357.06;109990;1267;20009;-34
2023/07/27 01:10:40;;;;;;;;;3.00;3.00;;;;;24.20;40.14;100359.20;109984;1254;22081;-34
2023/07/27 01:13:08;;;;;;;;;3.00;3.00;;;;;24.18;40.34;100358.14;109970;1252;19638;-35
2023/07/27 01:15:35;;;;;;;;;2.00;2.00;;;;;24.17;40.29;100356.14;109993;1254;20651;-34
2023/07/27 01:18:02;;;;;;;;;5.00;4.00;;;;;24.16;40.30;100357.80;109835;1254;20767;-35
2023/07/27 01:20:30;;;;;;;;;3.00;3.00;;;;;24.16;39.97;100359.45;110031;1253;19649;-36
2023/07/27 01:22:57;;;;;;;;;2.00;2.00;;;;;24.17;40.17;100360.19;110040;1263;19982;-34
2023/07/27 01:25:24;;;;;;;;;2.00;2.00;;;;;24.17;40.24;100363.69;110008;1267;19369;-35
2023/07/27 01:27:52;;;;;;;;;2.67;2.67;;;;;24.18;39.98;100361.48;110030;1253;21088;-35
2023/07/27 01:30:19;;;;;;;;;2.00;2.00;;;;;24.17;40.12;100356.95;110014;1268;18559;-35
2023/07/27 01:32:46;;;;;;;;;3.00;3.00;;;;;24.19;40.04;100359.17;109981;1268;22409;-35
2023/07/27 01:35:14;;;;;;;;;2.00;2.00;;;;;24.17;40.28;100356.79;109963;1254;19647;-35
2023/07/27 01:37:41;;;;;;;;;6.00;4.00;;;;;24.16;40.12;100354.08;109983;1253;18767;-36
2023/07/27 01:40:08;;;;;;;;;5.00;3.00;;;;;24.16;40.17;100354.69;110012;1267;19824;-35
2023/07/27 01:42:35;;;;;;;;;5.00;3.00;;;;;24.15;39.75;100361.77;109985;1268;19495;-35
2023/07/27 01:45:03;;;;;;;;;3.00;3.00;;;;;24.17;40.07;100361.93;109926;1253;20099;-35
2023/07/27 01:47:30;;;;;;;;;5.00;4.00;;;;;24.15;40.02;100362.63;110014;1254;20843;-35
2023/07/27 01:49:57;;;;;;;;;3.00;3.00;;;;;24.16;39.91;100362.11;110012;1255;19696;-35
2023/07/27 01:52:25;;;;;;;;;3.00;3.00;;;;;24.16;40.24;100359.98;109982;1267;22288;-35
2023/07/27 01:54:52;;;;;;;;;5.00;5.00;;;;;24.15;40.15;100361.38;109988;1253;20837;-36
2023/07/27 01:57:19;;;;;;;;;4.33;3.00;;;;;24.14;39.86;100362.32;110029;1267;18585;-34
2023/07/27 01:59:47;;;;;;;;;2.00;2.00;;;;;24.15;40.07;100371.34;110038;1252;19993;-34
2023/07/27 02:02:14;;;;;;;;;3.00;3.00;;;;;24.15;40.14;100372.92;110023;1254;21664;-36
2023/07/27 02:04:41;;;;;;;;;3.00;2.67;;;;;24.15;40.04;100375.50;109902;1254;19689;-35
2023/07/27 02:07:09;;;;;;;;;2.00;2.00;;;;;24.17;39.92;100377.71;109934;1253;18698;-37
2023/07/27 02:09:36;;;;;;;;;5.00;4.00;;;;;24.16;40.00;100371.65;110036;1262;21735;-35
2023/07/27 02:12:03;;;;;;;;;5.00;3.00;;;;;24.15;39.83;100368.64;110023;1267;18235;-35
2023/07/27 02:14:31;;;;;;;;;2.00;2.00;;;;;24.16;39.92;100369.91;109716;1268;21732;-34
2023/07/27 02:16:58;;;;;;;;;2.50;2.50;;;;;24.14;39.96;100375.90;109624;1269;19916;-35
2023/07/27 02:19:25;;;;;;;;;5.00;4.00;;;;;24.17;39.76;100379.84;109622;1268;18449;-36
2023/07/27 02:21:52;;;;;;;;;5.00;5.00;;;;;24.16;39.75;100380.41;109579;1254;20016;-36
2023/07/27 02:24:20;;;;;;;;;5.00;5.00;;;;;24.14;39.86;100380.27;109581;1269;19562;-36
2023/07/27 02:26:47;;;;;;;;;3.00;2.00;;;;;24.14;39.91;100382.53;109600;1254;19671;-36
2023/07/27 02:29:14;;;;;;;;;3.00;3.00;;;;;24.15;39.62;100383.55;109610;1268;22332;-36
2023/07/27 02:31:42;;;;;;;;;5.00;3.00;;;;;24.15;39.72;100382.05;109618;1254;20829;-35
2023/07/27 02:34:09;;;;;;;;;6.00;5.00;;;;;24.14;39.71;100378.67;109580;1254;19661;-36
2023/07/27 02:36:36;;;;;;;;;3.00;3.00;;;;;24.15;39.44;100378.77;109590;1253;21513;-36
2023/07/27 02:39:04;;;;;;;;;3.00;3.00;;;;;24.13;39.46;100384.23;109886;1260;20766;-36
2023/07/27 02:41:31;;;;;;;;;5.50;5.00;;;;;24.13;39.40;100385.06;109986;1262;19536;-35
2023/07/27 02:43:58;;;;;;;;;5.00;5.00;;;;;24.14;39.68;100381.64;110023;1253;22166;-35
2023/07/27 02:46:26;;;;;;;;;5.00;5.00;;;;;24.12;39.51;100382.39;109982;1253;22240;-35
2023/07/27 02:48:55;;;;;;;;;3.67;3.00;;;;;24.13;39.27;100381.23;110000;1267;18532;-35
2023/07/27 02:51:23;;;;;;;;;3.00;3.00;;;;;24.12;39.34;100380.58;110009;1268;18808;-34
2023/07/27 02:53:50;;;;;;;;;6.00;6.00;;;;;24.12;39.28;100381.67;109991;1253;20793;-35
2023/07/27 02:56:17;;;;;;;;;3.00;3.00;;;;;24.12;39.48;100380.86;109999;1252;20014;-36
2023/07/27 02:58:45;;;;;;;;;5.00;5.00;;;;;24.14;39.31;100383.79;110004;1254;20160;-35
2023/07/27 03:01:12;;;;;;;;;3.00;3.00;;;;;24.12;39.28;100389.40;109993;1267;19595;-35
2023/07/27 03:03:39;;;;;;;;;3.00;3.00;;;;;24.11;39.00;100389.19;109991;1254;22722;-35
2023/07/27 03:06:07;;;;;;;;;5.00;5.00;;;;;24.10;39.19;100387.29;110020;1252;20847;-35
2023/07/27 03:08:34;;;;;;;;;4.00;3.00;;;;;24.11;39.01;100389.42;109983;1254;20862;-35
2023/07/27 03:11:02;;;;;;;;;5.00;3.00;;;;;24.10;38.98;100392.56;109995;1254;19690;-35
2023/07/27 03:13:29;;;;;;;;;5.00;5.00;;;;;24.10;39.04;100390.25;110018;1268;20255;-33
2023/07/27 03:15:57;;;;;;;;;6.00;5.00;;;;;24.10;38.81;100393.27;109638;1252;20780;-35
2023/07/27 03:18:24;;;;;;;;;5.00;4.00;;;;;24.09;38.95;100394.98;109607;1268;18446;-36
2023/07/27 03:20:51;;;;;;;;;5.00;5.00;;;;;24.09;38.93;100394.15;109607;1254;22717;-35
2023/07/27 03:23:19;;;;;;;;;5.00;5.00;;;;;24.09;38.78;100396.63;109566;1268;19508;-35
2023/07/27 03:25:46;;;;;;;;;6.00;6.00;;;;;24.09;38.80;100398.65;109572;1269;22868;-35
2023/07/27 03:28:13;;;;;;;;;5.00;5.00;;;;;24.10;38.54;100402.52;109576;1268;20045;-36
2023/07/27 03:30:40;;;;;;;;;5.00;5.00;;;;;24.10;38.58;100405.08;109665;1254;20706;-36
2023/07/27 03:33:08;;;;;;;;;5.00;5.00;;;;;24.10;38.66;100404.11;109992;1253;18301;-36
2023/07/27 03:35:35;;;;;;;;;5.00;5.00;;;;;24.10;38.58;100401.31;109991;1260;20289;-36
2023/07/27 03:38:03;;;;;;;;;5.00;5.00;;;;;24.11;38.40;100396.59;109985;1251;20867;-35
2023/07/27 03:40:30;;;;;;;;;5.00;5.00;;;;;24.11;38.48;100397.56;110012;1268;22721;-36
2023/07/27 03:42:57;;;;;;;;;3.00;3.00;;;;;24.11;38.59;100398.72;109978;1254;20125;-36
2023/07/27 03:45:25;;;;;;;;;4.00;4.00;;;;;24.09;38.36;100399.95;109970;1254;21034;-36
2023/07/27 03:47:52;;;;;;;;;3.00;3.00;;;;;24.09;38.68;100405.05;109897;1267;20351;-35
2023/07/27 03:50:19;;;;;;;;;5.00;5.00;;;;;24.09;38.42;100408.83;109976;1254;20064;-33
2023/07/27 03:52:47;;;;;;;;;5.00;4.00;;;;;24.08;38.40;100410.59;109997;1254;20751;-35
2023/07/27 03:55:18;;;;;;;;;4.33;3.00;;;;;24.09;38.29;100409.38;110016;1255;20879;-35
2023/07/27 03:57:45;;;;;;;;;3.00;3.00;;;;;24.09;38.30;100410.63;109964;1260;19815;-36
2023/07/27 04:00:12;;;;;;;;;5.00;5.00;;;;;24.08;38.31;100408.08;109965;1253;22913;-36
2023/07/27 04:02:40;;;;;;;;;9.00;9.00;;;;;24.09;38.17;100410.02;110007;1263;18628;-35
2023/07/27 04:05:07;;;;;;;;;9.00;9.00;;;;;24.10;38.26;100412.65;109885;1267;18811;-35
2023/07/27 04:07:35;;;;;;;;;9.00;6.50;;;;;24.08;38.21;100410.27;109926;1254;20862;-36
2023/07/27 04:10:02;;;;;;;;;9.00;9.00;;;;;24.08;38.12;100412.23;110023;1262;19696;-35
2023/07/27 04:12:29;;;;;;;;;11.00;11.00;;;;;24.08;38.30;100412.90;110040;1267;20027;-35
2023/07/27 04:14:57;;;;;;;;;6.00;6.00;;;;;24.10;38.07;100419.54;110022;1267;20822;-35
2023/07/27 04:17:24;;;;;;;;;12.00;11.00;;;;;24.10;38.19;100426.10;109983;1267;18636;-35
2023/07/27 04:19:51;;;;;;;;;10.00;9.00;;;;;24.10;38.26;100426.81;109976;1267;18728;-36
2023/07/27 04:22:19;;;;;;;;;12.00;12.00;;;;;24.11;38.08;100418.88;110011;1253;20837;-36
2023/07/27 04:24:46;;;;;;;;;14.00;12.00;;;;;24.10;38.27;100415.86;109924;1267;20399;-35
2023/07/27 04:27:13;;;;;;;;;12.00;12.00;;;;;24.11;37.83;100418.59;109893;1254;22623;-35
2023/07/27 04:29:40;;;;;;;;;14.00;14.00;;;;;24.12;38.12;100418.85;109994;1254;20803;-35
2023/07/27 04:32:08;;;;;;;;;16.00;16.00;;;;;24.07;38.05;100417.17;109989;1253;22220;-36
2023/07/27 04:34:35;;;;;;;;;18.00;18.00;;;;;24.05;37.70;100419.56;109963;1262;20042;-35
2023/07/27 04:37:02;;;;;;;;;15.00;14.00;;;;;24.06;37.70;100418.62;109974;1254;20866;-34
2023/07/27 04:39:30;;;;;;;;;17.00;16.00;;;;;24.06;37.84;100414.23;109949;1263;20108;-33
2023/07/27 04:41:57;;;;;;;;;15.00;14.00;;;;;24.05;37.93;100410.04;109892;1253;20214;-34
2023/07/27 04:44:24;;;;;;;;;14.00;12.50;;;;;24.04;37.71;100406.02;110017;1253;20714;-35
2023/07/27 04:46:52;;;;;;;;;14.00;12.00;;;;;24.03;37.77;100401.88;110005;1254;20055;-34
2023/07/27 04:49:19;;;;;;;;;14.50;14.00;;;;;23.99;37.84;100396.91;110033;1267;20095;-34
2023/07/27 04:51:46;;;;;;;;;10.50;10.00;;;;;24.04;37.88;100397.14;109971;1262;20908;-35
2023/07/27 04:54:14;;;;;;;;;11.00;11.00;;;;;24.07;37.92;100399.63;109955;1254;20073;-36
2023/07/27 04:56:41;;;;;;;;;16.33;14.67;;;;;24.06;37.73;100399.42;109933;1255;20153;-35
2023/07/27 04:59:08;;;;;;;;;10.00;10.00;;;;;24.06;37.74;100399.46;109972;1253;19428;-35
2023/07/27 05:01:36;;;;;;;;;14.00;12.00;;;;;24.06;37.68;100400.39;109948;1254;20056;-35
2023/07/27 05:04:03;;;;;;;;;11.00;10.00;;;;;24.06;37.62;100403.95;109970;1263;20177;-35
2023/07/27 05:06:30;;;;;;;;;14.00;11.50;;;;;24.06;37.76;100408.11;109999;1253;20832;-35
2023/07/27 05:08:57;;;;;;;;;12.00;11.00;;;;;24.01;38.10;100410.23;109997;1267;18595;-35
2023/07/27 05:11:25;;;;;;;;;11.00;10.00;;;;;24.03;37.98;100412.54;109591;1261;23037;-35
2023/07/27 05:13:52;;;;;;;;;12.00;12.00;;;;;24.04;37.79;100417.52;109568;1268;19549;-35
2023/07/27 05:16:19;;;;;;;;;10.00;10.00;;;;;24.03;37.84;100409.58;109530;1254;22400;-36
2023/07/27 05:18:47;;;;;;;;;9.50;9.00;;;;;24.02;37.99;100412.27;109949;1253;20287;-35
2023/07/27 05:21:14;;;;;;;;;10.00;10.00;;;;;24.05;38.11;100416.02;110009;1267;20013;-35
2023/07/27 05:23:41;;;;;;;;;11.00;10.00;;;;;24.06;38.04;100414.85;109984;1253;21949;-35
2023/07/27 05:26:09;;;;;;;;;9.00;7.00;;;;;24.04;38.24;100417.06;109991;1267;18749;-36
2023/07/27 05:28:36;;;;;;;;;8.00;8.00;;;;;24.08;38.03;100416.52;109975;1254;20869;-35
2023/07/27 05:31:03;;;;;;;;;6.00;6.00;;;;;24.08;38.17;100419.86;109998;1254;19748;-35
2023/07/27 05:33:31;;;;;;;;;6.00;6.00;;;;;24.09;38.22;100416.48;109962;1268;20030;-34
2023/07/27 05:35:58;;;;;;;;;7.00;6.00;;;;;24.10;38.40;100421.62;109990;1252;19375;-35
2023/07/27 05:38:25;;;;;;;;;8.00;8.00;;;;;24.06;38.38;100423.76;109975;1254;22232;-34
2023/07/27 05:40:53;;;;;;;;;7.00;7.00;;;;;24.08;38.45;100418.73;109987;1268;18645;-34
2023/07/27 05:43:20;;;;;;;;;10.00;6.00;;;;;24.10;38.65;100416.41;109987;1253;20800;-34
2023/07/27 05:45:47;;;;;;;;;9.00;7.00;;;;;24.13;38.69;100419.16;109971;1254;19605;-34
2023/07/27 05:48:14;;;;;;;;;5.00;5.00;;;;;24.14;38.62;100418.25;109943;1267;22332;-35
2023/07/27 05:50:42;;;;;;;;;6.00;6.00;;;;;24.16;38.61;100419.36;109943;1254;20821;-35
2023/07/27 05:53:09;;;;;;;;;5.00;5.00;;;;;24.18;38.55;100415.17;109943;1267;22158;-35
2023/07/27 05:55:36;;;;;;;;;6.00;5.00;;;;;24.18;38.86;100415.94;109941;1254;20095;-34
2023/07/27 05:58:04;;;;;;;;;7.00;5.33;;;;;24.17;39.04;100416.84;109952;1263;20786;-33
2023/07/27 06:00:32;;;;;;;;;5.00;4.00;;;;;24.21;38.86;100415.08;109849;1260;18478;-33
2023/07/27 06:02:59;;;;;;;;;5.00;4.00;;;;;24.22;39.24;100415.42;109887;1267;18923;-34
2023/07/27 06:05:26;;;;;;;;;6.00;6.00;;;;;24.25;39.21;100415.94;109866;1267;19529;-33
2023/07/27 06:07:54;;;;;;;;;8.00;6.50;;;;;24.26;39.51;100413.08;109815;1260;19857;-34
2023/07/27 06:10:21;;;;;;;;;5.00;5.00;;;;;24.31;39.47;100413.77;109708;1253;21547;-33
2023/07/27 06:12:48;;;;;;;;;7.00;6.00;;;;;24.29;39.51;100413.26;109935;1267;19353;-36
2023/07/27 06:15:16;;;;;;;;;5.00;5.00;;;;;24.32;39.41;100415.88;109889;1253;20027;-34
2023/07/27 06:17:43;;;;;;;;;6.00;6.00;;;;;24.34;39.88;100415.95;109628;1254;20111;-34
2023/07/27 06:20:10;;;;;;;;;5.00;5.00;;;;;24.37;39.96;100415.13;109604;1254;20744;-34
2023/07/27 06:22:38;;;;;;;;;7.00;7.00;;;;;24.39;39.85;100413.45;109611;1254;22311;-33
2023/07/27 06:25:06;;;;;;;;;7.00;7.00;;;;;24.40;40.36;100413.33;109656;1254;19951;-33
2023/07/27 06:27:33;;;;;;;;;7.00;7.00;;;;;24.42;40.48;100410.27;109607;1254;20823;-33
2023/07/27 06:30:00;;;;;;;;;6.00;6.00;;;;;24.42;40.71;100417.17;109606;1254;19742;-33
2023/07/27 06:32:28;;;;;;;;;7.00;6.00;;;;;24.45;40.62;100419.27;109623;1253;20331;-36
2023/07/27 06:34:55;;;;;;;;;7.00;6.00;;;;;24.46;40.91;100413.93;109566;1262;20832;-33
2023/07/27 06:37:22;;;;;;;;;10.00;7.00;;;;;24.49;40.76;100412.29;109571;1252;19961;-34
2023/07/27 06:39:50;;;;;;;;;6.50;6.50;;;;;24.48;40.91;100408.52;109611;1253;20120;-35
2023/07/27 06:42:17;;;;;;;;;15.00;14.00;;;;;24.46;41.12;100413.70;109632;1260;20773;-35
2023/07/27 06:44:44;;;;;;;;;21.00;17.00;;;;;24.47;41.15;100411.98;109607;1268;19116;-36
2023/07/27 06:47:12;;;;;;;;;26.00;20.00;;;;;24.46;40.70;100410.14;109600;1253;20241;-36
2023/07/27 06:49:39;;;;;;;;;24.50;24.50;;;;;24.47;40.63;100405.53;109606;1268;19389;-35
2023/07/27 06:52:08;;;;;;;;;60.00;46.00;;;;;24.48;40.71;100406.77;109609;1268;22380;-35
2023/07/27 06:54:36;;;;;;;;;52.00;42.00;;;;;24.50;40.87;100407.38;109624;1254;20215;-35
2023/07/27 06:57:07;;;;;;;;;57.00;44.00;;;;;24.49;40.72;100405.49;109616;1269;19380;-35
2023/07/27 06:59:35;;;;;;;;;70.00;52.00;;;;;24.52;40.61;100410.02;109566;1254;20107;-35
2023/07/27 07:02:02;;;;;;;;;69.33;53.67;;;;;24.52;40.80;100410.95;109618;1252;20223;-35
2023/07/27 07:04:29;;;;;;;;;57.00;40.00;;;;;24.52;40.74;100407.79;109854;1267;19352;-35
2023/07/27 07:06:57;;;;;;;;;47.00;38.00;;;;;24.54;40.69;100399.98;109970;1268;19983;-35
2023/07/27 07:09:25;;;;;;;;;37.50;30.00;;;;;24.57;40.79;100394.31;109988;1267;20060;-37
2023/07/27 07:11:52;;;;;;;;;28.00;24.00;;;;;24.62;40.67;100395.27;110017;1263;20663;-35
2023/07/27 07:14:19;;;;;;;;;15.67;15.33;;;;;24.55;41.02;100397.92;109986;1267;18597;-35
2023/07/27 07:16:46;;;;;;;;;15.00;12.00;;;;;24.40;41.62;100399.14;109975;1253;20165;-35
2023/07/27 07:19:14;;;;;;;;;12.00;10.00;;;;;24.36;41.77;100397.53;109989;1267;19606;-35
2023/07/27 07:21:41;;;;;;;;;8.00;6.00;;;;;24.31;42.09;100402.66;110018;1268;18648;-35
2023/07/27 07:24:09;;;;;;;;;9.33;7.67;;;;;24.32;41.99;100399.25;109991;1254;20059;-35
2023/07/27 07:26:36;;;;;;;;;7.00;7.00;;;;;24.32;42.27;100397.39;109988;1267;19386;-36
2023/07/27 07:29:03;;;;;;;;;7.00;7.00;;;;;24.32;42.55;100395.84;109999;1268;22167;-36
2023/07/27 07:31:31;;;;;;;;;6.50;6.00;;;;;24.33;42.49;100394.67;110003;1267;18701;-36
2023/07/27 07:33:58;;;;;;;;;8.00;6.00;;;;;24.28;42.66;100397.62;109972;1267;20737;-35
2023/07/27 07:36:26;;;;;;;;;7.00;6.00;;;;;24.21;42.17;100394.77;109969;1254;19704;-34
2023/07/27 07:38:53;;;;;;;;;7.00;7.00;;;;;24.09;42.01;100397.72;109956;1267;19903;-35
2023/07/27 07:41:20;;;;;;;;;6.00;6.00;;;;;23.99;42.06;100395.60;110044;1254;20838;-36
2023/07/27 07:43:47;;;;;;;;;6.00;6.00;;;;;23.99;42.44;100390.40;110013;1262;22012;-37
2023/07/27 07:46:15;;;;;;;;;6.00;6.00;;;;;24.06;42.55;100391.08;109980;1260;22234;-35
2023/07/27 07:48:42;;;;;;;;;6.00;6.00;;;;;24.08;42.81;100386.45;110000;1254;20815;-35
2023/07/27 07:51:09;;;;;;;;;6.50;6.00;;;;;23.95;42.03;100385.33;109986;1254;19694;-35
2023/07/27 07:53:37;;;;;;;;;3.67;3.67;;;;;23.96;41.70;100389.23;109987;1268;20124;-35
2023/07/27 07:56:05;;;;;;;;;6.00;6.00;;;;;24.01;41.29;100384.39;109937;1268;22245;-34
2023/07/27 07:58:32;;;;;;;;;6.00;5.00;;;;;24.01;40.97;100382.91;109958;1254;19679;-35
2023/07/27 08:00:59;;;;;;;;;5.00;5.00;;;;;24.03;41.13;100384.96;109983;1267;19492;-35
2023/07/27 08:03:27;;;;;;;;;6.00;6.00;;;;;24.10;40.72;100382.77;109886;1267;19376;-35
2023/07/27 08:05:54;;;;;;;;;6.50;6.50;;;;;24.00;41.04;100377.03;109979;1267;18547;-35
2023/07/27 08:08:21;;;;;;;;;7.00;6.00;;;;;24.04;40.98;100376.25;110006;1254;20087;-35
2023/07/27 08:10:49;;;;;;;;;7.00;6.00;;;;;24.02;40.95;100373.98;109859;1267;19435;-35
2023/07/27 08:13:16;;;;;;;;;7.00;6.00;;;;;24.02;41.17;100375.80;109951;1253;19763;-35
2023/07/27 08:15:43;;;;;;;;;5.50;5.00;;;;;24.07;40.89;100373.18;110016;1254;22390;-35
2023/07/27 08:18:10;;;;;;;;;6.67;6.67;;;;;24.05;40.90;100373.39;110012;1267;19374;-35
2023/07/27 08:20:38;;;;;;;;;7.00;7.00;;;;;24.10;40.76;100370.66;110004;1254;19707;-35
2023/07/27 08:23:05;;;;;;;;;6.50;6.00;;;;;24.11;40.65;100363.15;110013;1260;22697;-36
2023/07/27 08:25:33;;;;;;;;;6.00;5.00;;;;;24.11;40.07;100361.98;109971;1253;20968;-35
2023/07/27 08:28:00;;;;;;;;;5.00;5.00;;;;;24.14;39.57;100357.52;109952;1254;19655;-35
2023/07/27 08:30:28;;;;;;;;;5.50;5.00;;;;;24.07;39.09;100354.89;109866;1253;20060;-35
2023/07/27 08:32:55;;;;;;;;;3.00;3.00;;;;;24.09;38.78;100350.21;110002;1254;20919;-35
2023/07/27 08:35:23;;;;;;;;;6.00;6.00;;;;;24.22;38.59;100348.06;109955;1253;19523;-36
2023/07/27 08:37:50;;;;;;;;;7.00;7.00;;;;;24.32;38.66;100344.50;110026;1253;20102;-36
2023/07/27 08:40:17;;;;;;;;;6.00;6.00;;;;;24.33;38.73;100340.75;109946;1267;19397;-36
2023/07/27 08:42:45;;;;;;;;;6.00;5.00;;;;;24.27;38.46;100336.91;109888;1254;22583;-36
2023/07/27 08:45:12;;;;;;;;;6.00;5.00;;;;;24.24;38.41;100334.88;109984;1255;20121;-36
2023/07/27 08:47:40;;;;;;;;;6.00;6.00;;;;;24.24;38.57;100333.40;109940;1262;20767;-35
2023/07/27 08:50:07;;;;;;;;;5.00;5.00;;;;;24.24;38.40;100334.00;109906;1254;19732;-36
2023/07/27 08:52:35;;;;;;;;;5.00;5.00;;;;;24.24;38.60;100333.67;109987;1253;18573;-36
2023/07/27 08:55:02;;;;;;;;;5.00;5.00;;;;;24.33;38.20;100332.81;109986;1254;20754;-35
2023/07/27 08:57:29;;;;;;;;;6.00;6.00;;;;;24.44;38.07;100331.32;109989;1267;19610;-34
2023/07/27 08:59:57;;;;;;;;;6.00;6.00;;;;;24.39;38.16;100331.61;109998;1252;19755;-36
2023/07/27 09:02:24;;;;;;;;;5.00;5.00;;;;;24.29;37.61;100330.48;110003;1254;20811;-36
2023/07/27 09:04:51;;;;;;;;;5.00;5.00;;;;;24.20;37.37;100328.17;109965;1263;19622;-36
2023/07/27 09:07:18;;;;;;;;;5.00;5.00;;;;;24.17;37.69;100327.67;110022;1252;20052;-35
2023/07/27 09:09:46;;;;;;;;;5.00;5.00;;;;;24.20;37.57;100326.63;109969;1263;22880;-35
2023/07/27 09:12:13;;;;;;;;;7.00;6.00;;;;;24.30;37.22;100326.57;109991;1254;19719;-35
2023/07/27 09:14:40;;;;;;;;;6.00;6.00;;;;;24.41;36.98;100323.45;109976;1253;20134;-35
2023/07/27 09:17:09;;;;;;;;;6.00;5.00;;;;;24.38;36.67;100324.89;110008;1253;20823;-35
2023/07/27 09:19:37;;;;;;;;;5.00;5.00;;;;;24.41;36.27;100324.71;109973;1259;18360;-35
2023/07/27 09:22:04;;;;;;;;;6.00;6.00;;;;;24.33;36.26;100322.80;109972;1262;20545;-35
2023/07/27 09:24:32;;;;;;;;;6.00;6.00;;;;;24.30;36.10;100320.23;109989;1253;22321;-36
2023/07/27 09:27:00;;;;;;;;;5.00;5.00;;;;;24.21;36.19;100317.91;109976;1267;18352;-36
2023/07/27 09:29:28;;;;;;;;;5.00;5.00;;;;;24.16;36.05;100320.97;109965;1253;20112;-35
2023/07/27 09:31:57;;;;;;;;;6.00;5.00;;;;;24.07;35.28;100320.54;109969;1267;20793;-35
2023/07/27 09:34:28;;;;;;;;;6.00;5.00;;;;;24.11;35.13;100318.11;109972;1254;19725;-36
2023/07/27 09:36:55;;;;;;;;;6.00;5.50;;;;;24.03;35.50;100314.76;110034;1267;18663;-35
2023/07/27 09:39:24;;;;;;;;;6.00;6.00;;;;;24.06;36.04;100311.80;109999;1267;19561;-35
2023/07/27 09:41:51;;;;;;;;;5.00;5.00;;;;;24.26;35.66;100308.04;109945;1268;19619;-35
2023/07/27 09:44:19;;;;;;;;;5.00;5.00;;;;;24.29;35.90;100305.35;109980;1253;18638;-35
2023/07/27 09:46:46;;;;;;;;;5.50;5.50;;;;;24.32;35.66;100301.80;109995;1253;22364;-36
2023/07/27 09:49:14;;;;;;;;;6.00;6.00;;;;;24.33;35.42;100305.88;110000;1253;19617;-36
2023/07/27 09:51:41;;;;;;;;;6.00;5.00;;;;;24.38;34.89;100303.59;109984;1252;20006;-36
2023/07/27 09:54:09;;;;;;;;;5.00;5.00;;;;;24.33;34.78;100305.88;110001;1251;21076;-36
2023/07/27 09:56:37;;;;;;;;;7.00;6.00;;;;;24.36;34.52;100302.27;109992;1254;19667;-35
2023/07/27 09:59:04;;;;;;;;;6.00;6.00;;;;;24.22;35.08;100303.66;110008;1253;20143;-35
2023/07/27 10:01:31;;;;;;;;;6.00;6.00;;;;;24.18;34.72;100300.13;109999;1254;20813;-36
2023/07/27 10:03:59;;;;;;;;;6.00;6.00;;;;;24.05;35.08;100299.62;110067;1259;19669;-35
2023/07/27 10:06:26;;;;;;;;;6.00;6.00;;;;;24.09;34.99;100293.84;110014;1267;19842;-35
2023/07/27 10:08:54;;;;;;;;;6.00;5.00;;;;;24.17;35.34;100295.94;109920;1260;20690;-35
2023/07/27 10:11:21;;;;;;;;;6.00;6.00;;;;;24.16;35.11;100295.41;109874;1254;19747;-35
2023/07/27 10:13:48;;;;;;;;;;;;;;;24.08;34.84;100297.98;109892;1262;20310;-35
2023/07/27 10:16:16;;;;;;;;;6.00;5.67;;;;;24.05;33.89;100292.89;109991;1253;19371;-36
2023/07/27 10:18:45;;;;;;;;;5.00;5.00;;;;;24.01;33.56;100292.98;109972;1254;20265;-37
2023/07/27 10:21:12;;;;;;;;;6.00;5.00;;;;;24.13;33.29;100286.88;109986;1253;18722;-35
2023/07/27 10:23:39;;;;;;;;;3.00;3.00;;;;;24.17;33.32;100283.00;109989;1267;20763;-35
2023/07/27 10:26:07;;;;;;;;;5.00;3.00;;;;;24.18;33.26;100280.53;109950;1253;19872;-36
2023/07/27 10:28:35;;;;;;;;;6.00;5.00;;;;;24.27;33.08;100277.90;110001;1268;18681;-35
2023/07/27 10:31:02;;;;;;;;;3.00;3.00;;;;;24.29;32.89;100273.40;109895;1254;20785;-35
2023/07/27 10:33:29;;;;;;;;;5.50;5.50;;;;;24.19;32.68;100278.21;109947;1259;19532;-33
2023/07/27 10:35:57;;;;;;;;;6.00;6.00;;;;;24.27;33.00;100277.36;109936;1264;20091;-35
2023/07/27 10:38:24;;;;;;;;;6.00;5.50;;;;;24.28;33.18;100281.52;110007;1254;20798;-34
2023/07/27 10:40:51;;;;;;;;;5.00;5.00;;;;;24.29;33.20;100276.17;109945;1254;18400;-35
2023/07/27 10:43:19;;;;;;;;;5.00;5.00;;;;;24.33;33.40;100273.20;109972;1268;18620;-34
2023/07/27 10:45:46;;;;;;;;;5.00;5.00;;;;;24.37;33.78;100272.23;109994;1267;19390;-34
2023/07/27 10:48:13;;;;;;;;;5.00;5.00;;;;;24.47;34.25;100272.86;109770;1268;18475;-35
2023/07/27 10:50:41;;;;;;;;;5.00;5.00;;;;;24.48;33.87;100270.81;109628;1269;18637;-35
2023/07/27 10:53:08;;;;;;;;;5.00;3.00;;;;;24.40;33.49;100269.70;109617;1253;22755;-35
2023/07/27 10:55:35;;;;;;;;;5.00;5.00;;;;;24.37;33.46;100266.16;109624;1253;21376;-35
2023/07/27 10:58:03;;;;;;;;;5.00;5.00;;;;;24.34;32.78;100264.42;109575;1253;20056;-36
2023/07/27 11:00:30;;;;;;;;;5.00;4.00;;;;;24.30;32.46;100268.00;109613;1254;22135;-36
2023/07/27 11:02:57;;;;;;;;;3.00;3.00;;;;;24.27;32.43;100267.19;109664;1253;18517;-36
2023/07/27 11:05:25;;;;;;;;;3.00;3.00;;;;;24.26;32.51;100267.86;109641;1262;20028;-35
2023/07/27 11:07:52;;;;;;;;;5.00;5.00;;;;;24.29;32.12;100264.52;109583;1268;19394;-35
2023/07/27 11:10:20;;;;;;;;;5.00;5.00;;;;;24.19;31.99;100259.92;109619;1254;22754;-35
2023/07/27 11:12:47;;;;;;;;;3.00;3.00;;;;;24.11;32.42;100257.81;109589;1254;20029;-35
2023/07/27 11:15:14;;;;;;;;;3.00;3.00;;;;;24.17;32.53;100257.12;109593;1268;20708;-35